createdAt,value
2019-05-21T00:13:57.473Z,16.90
2019-05-21T00:29:41.068Z,16.30
2019-05-21T00:44:48.895Z,16.03
2019-05-21T00:59:56.701Z,14.97
2019-05-21T01:15:06.336Z,14.73
2019-05-21T01:30:14.259Z,11.53
2019-05-21T01:45:22.064Z,17.07
2019-05-21T02:00:29.641Z,12.35
2019-05-21T02:15:37.413Z,13.33
2019-05-21T02:30:45.525Z,16.70
2019-05-21T02:45:53.610Z,12.88
2019-05-21T03:01:08.125Z,12.80
2019-05-21T03:16:15.901Z,13.27
2019-05-21T03:31:23.719Z,11.53
2019-05-21T03:46:32.260Z,14.77
2019-05-21T04:01:40.349Z,15.68
2019-05-21T04:16:55.870Z,13.83
2019-05-21T04:32:04.664Z,13.43
2019-05-21T04:47:12.241Z,14.40
2019-05-21T05:02:21.252Z,12.17
2019-05-21T05:17:28.857Z,11.03
2019-05-21T05:32:36.810Z,9.50
2019-05-21T05:47:44.695Z,8.77
2019-05-21T06:02:52.515Z,8.93
2019-05-21T06:18:00.017Z,7.12
2019-05-21T06:33:07.812Z,6.10
2019-05-21T06:48:15.604Z,8.53
2019-05-21T07:03:23.427Z,6.17
2019-05-21T07:18:31.238Z,6.57
2019-05-21T07:33:39.304Z,5.87
2019-05-21T07:48:47.210Z,7.50
2019-05-21T08:03:55.084Z,8.07
2019-05-21T08:19:02.904Z,5.07
2019-05-21T08:34:10.760Z,4.37
2019-05-21T08:49:18.695Z,2.70
2019-05-21T09:04:44.981Z,3.05
2019-05-21T09:19:36.886Z,5.03
2019-05-21T09:34:49.107Z,3.30
2019-05-21T09:49:54.478Z,3.25
2019-05-21T10:05:02.007Z,2.75
2019-05-21T10:20:10.106Z,5.13
2019-05-21T10:35:17.892Z,3.67
2019-05-21T10:50:25.997Z,5.10
2019-05-21T11:05:43.682Z,3.67
2019-05-21T11:20:51.804Z,2.60
2019-05-21T11:35:59.626Z,4.27
2019-05-21T11:51:07.820Z,4.75
2019-05-21T12:06:16.076Z,2.15
2019-05-21T12:21:23.899Z,4.53
2019-05-21T12:36:33.358Z,3.90
2019-05-21T12:51:41.154Z,2.53
2019-05-21T13:06:49.040Z,3.03
2019-05-21T13:21:57.814Z,3.03
2019-05-21T13:37:06.376Z,3.47
2019-05-21T13:52:15.160Z,3.57
2019-05-21T14:07:25.101Z,2.93
2019-05-21T14:22:36.420Z,6.37
2019-05-21T14:37:42.470Z,3.23
2019-05-21T14:52:52.367Z,3.73
2019-05-21T15:07:59.837Z,2.83
2019-05-21T15:23:09.031Z,4.97
2019-05-21T15:38:16.814Z,2.23
2019-05-21T15:53:25.024Z,3.83
2019-05-21T16:08:33.054Z,3.85
2019-05-21T16:23:41.948Z,4.23
2019-05-21T16:38:49.765Z,5.10
2019-05-21T16:53:57.584Z,4.43
2019-05-21T17:09:06.230Z,6.73
2019-05-21T17:24:14.030Z,5.33
2019-05-21T17:39:22.108Z,8.03
2019-05-21T17:54:29.933Z,5.97
2019-05-21T18:09:38.248Z,4.00
2019-05-21T18:24:48.612Z,3.53
2019-05-21T18:39:56.736Z,5.57
2019-05-21T18:55:05.980Z,3.80
2019-05-21T19:10:14.991Z,3.47
2019-05-21T19:25:23.196Z,4.03
2019-05-21T19:40:31.042Z,3.33
2019-05-21T19:55:39.664Z,3.50
2019-05-21T20:10:48.742Z,4.87
2019-05-21T20:25:57.261Z,4.12
2019-05-21T20:41:06.347Z,5.13
2019-05-21T20:56:15.621Z,3.30
2019-05-21T21:11:25.798Z,6.13
2019-05-21T21:26:34.495Z,4.87
2019-05-21T21:41:42.468Z,5.17
2019-05-21T21:56:50.285Z,6.10
2019-05-21T22:11:58.137Z,5.77
2019-05-21T22:27:06.384Z,8.07
2019-05-21T22:42:16.353Z,6.37
2019-05-21T22:57:26.310Z,7.43
2019-05-21T23:12:35.134Z,10.40
2019-05-21T23:27:43.643Z,9.33
2019-05-21T23:42:51.700Z,7.13
2019-05-21T23:57:59.626Z,11.80
